sensor_id;sensor_type;location;lat;lon;timestamp;pressure;altitude;pressure_sealevel;temperature;humidity
44138;BME280;29800;55.942;37.314;2023-02-12T00:00:48;98065.94;;;0.11;73.12
44138;BME280;29800;55.942;37.314;2023-02-12T00:03:14;98066.69;;;0.18;73.49
44138;BME280;29800;55.942;37.314;2023-02-12T00:05:40;98068.41;;;0.13;72.64
44138;BME280;29800;55.942;37.314;2023-02-12T00:08:07;98087.84;;;0.15;72.17
44138;BME280;29800;55.942;37.314;2023-02-12T00:10:34;98087.63;;;0.16;71.64
44138;BME280;29800;55.942;37.314;2023-02-12T00:13:00;98099.88;;;0.12;71.39
44138;BME280;29800;55.942;37.314;2023-02-12T00:15:26;98107.47;;;-0.03;70.44
44138;BME280;29800;55.942;37.314;2023-02-12T00:17:52;98113.59;;;-0.14;71.60
44138;BME280;29800;55.942;37.314;2023-02-12T00:20:18;98120.00;;;-0.15;70.86
44138;BME280;29800;55.942;37.314;2023-02-12T00:22:44;98125.09;;;-0.07;70.49
44138;BME280;29800;55.942;37.314;2023-02-12T00:25:10;98123.97;;;-0.18;70.56
44138;BME280;29800;55.942;37.314;2023-02-12T00:27:38;98141.00;;;-0.06;70.37
44138;BME280;29800;55.942;37.314;2023-02-12T00:30:05;98140.03;;;-0.11;70.03
44138;BME280;29800;55.942;37.314;2023-02-12T00:32:32;98149.91;;;-0.05;70.10
44138;BME280;29800;55.942;37.314;2023-02-12T00:34:58;98163.84;;;-0.15;69.92
44138;BME280;29800;55.942;37.314;2023-02-12T00:37:24;98165.56;;;-0.21;70.25
44138;BME280;29800;55.942;37.314;2023-02-12T00:39:52;98177.78;;;-0.25;69.50
44138;BME280;29800;55.942;37.314;2023-02-12T00:42:18;98177.22;;;-0.33;69.73
44138;BME280;29800;55.942;37.314;2023-02-12T00:44:44;98186.38;;;-0.41;70.63
44138;BME280;29800;55.942;37.314;2023-02-12T00:47:10;98192.13;;;-0.31;70.66
44138;BME280;29800;55.942;37.314;2023-02-12T00:49:37;98205.13;;;-0.28;69.57
44138;BME280;29800;55.942;37.314;2023-02-12T00:52:04;98211.44;;;-0.47;69.76
44138;BME280;29800;55.942;37.314;2023-02-12T00:54:30;98221.22;;;-0.60;69.72
44138;BME280;29800;55.942;37.314;2023-02-12T00:56:57;98229.72;;;-0.63;70.41
44138;BME280;29800;55.942;37.314;2023-02-12T00:59:28;98241.94;;;-0.67;69.96
44138;BME280;29800;55.942;37.314;2023-02-12T01:01:56;98245.25;;;-0.65;69.78
44138;BME280;29800;55.942;37.314;2023-02-12T01:04:23;98249.94;;;-0.53;70.65
44138;BME280;29800;55.942;37.314;2023-02-12T01:06:49;98254.72;;;-0.56;69.76
44138;BME280;29800;55.942;37.314;2023-02-12T01:09:16;98266.34;;;-0.68;70.00
44138;BME280;29800;55.942;37.314;2023-02-12T01:11:42;98272.38;;;-0.80;69.96
44138;BME280;29800;55.942;37.314;2023-02-12T01:14:08;98275.91;;;-0.86;70.01
44138;BME280;29800;55.942;37.314;2023-02-12T01:16:35;98290.41;;;-1.00;70.25
44138;BME280;29800;55.942;37.314;2023-02-12T01:19:02;98288.81;;;-1.08;70.54
44138;BME280;29800;55.942;37.314;2023-02-12T01:21:32;98297.88;;;-1.02;70.63
44138;BME280;29800;55.942;37.314;2023-02-12T01:24:00;98300.97;;;-1.12;70.63
44138;BME280;29800;55.942;37.314;2023-02-12T01:26:27;98318.75;;;-1.18;70.79
44138;BME280;29800;55.942;37.314;2023-02-12T01:28:56;98324.75;;;-1.22;71.06
44138;BME280;29800;55.942;37.314;2023-02-12T01:31:25;98322.28;;;-1.31;70.98
44138;BME280;29800;55.942;37.314;2023-02-12T01:33:55;98319.81;;;-1.39;71.26
44138;BME280;29800;55.942;37.314;2023-02-12T01:36:21;98346.47;;;-1.44;71.43
44138;BME280;29800;55.942;37.314;2023-02-12T01:38:48;98353.25;;;-1.48;71.38
44138;BME280;29800;55.942;37.314;2023-02-12T01:41:18;98354.50;;;-1.51;71.69
44138;BME280;29800;55.942;37.314;2023-02-12T01:43:45;98364.84;;;-1.48;71.75
44138;BME280;29800;55.942;37.314;2023-02-12T01:46:30;98369.78;;;-1.51;71.40
44138;BME280;29800;55.942;37.314;2023-02-12T01:48:56;98372.25;;;-1.56;72.12
44138;BME280;29800;55.942;37.314;2023-02-12T01:51:23;98385.47;;;-1.61;71.93
44138;BME280;29800;55.942;37.314;2023-02-12T01:53:53;98397.00;;;-1.61;72.51
44138;BME280;29800;55.942;37.314;2023-02-12T01:56:22;98406.31;;;-1.63;72.35
44138;BME280;29800;55.942;37.314;2023-02-12T01:58:50;98401.53;;;-1.68;71.91
44138;BME280;29800;55.942;37.314;2023-02-12T02:01:20;98395.75;;;-1.72;72.29
44138;BME280;29800;55.942;37.314;2023-02-12T02:03:49;98409.38;;;-1.80;72.00
44138;BME280;29800;55.942;37.314;2023-02-12T02:06:20;98417.41;;;-1.80;71.83
44138;BME280;29800;55.942;37.314;2023-02-12T02:08:47;98425.88;;;-1.83;71.67
44138;BME280;29800;55.942;37.314;2023-02-12T02:11:14;98427.09;;;-1.79;72.17
44138;BME280;29800;55.942;37.314;2023-02-12T02:14:00;98441.78;;;-1.68;72.00
44138;BME280;29800;55.942;37.314;2023-02-12T02:22:37;98454.59;;;-1.70;71.34
44138;BME280;29800;55.942;37.314;2023-02-12T02:31:13;98492.56;;;-1.73;71.41
44138;BME280;29800;55.942;37.314;2023-02-12T02:33:39;98502.66;;;-1.75;71.38
44138;BME280;29800;55.942;37.314;2023-02-12T02:36:28;98510.09;;;-1.71;71.70
44138;BME280;29800;55.942;37.314;2023-02-12T02:39:08;98517.31;;;-1.71;71.49
44138;BME280;29800;55.942;37.314;2023-02-12T02:41:50;98521.06;;;-1.65;71.44
44138;BME280;29800;55.942;37.314;2023-02-12T02:44:24;98533.25;;;-1.63;71.41
44138;BME280;29800;55.942;37.314;2023-02-12T02:46:52;98529.53;;;-1.69;71.23
44138;BME280;29800;55.942;37.314;2023-02-12T02:49:24;98535.72;;;-1.68;71.38
44138;BME280;29800;55.942;37.314;2023-02-12T02:51:58;98542.75;;;-1.60;71.26
44138;BME280;29800;55.942;37.314;2023-02-12T02:54:32;98553.69;;;-1.62;71.46
44138;BME280;29800;55.942;37.314;2023-02-12T02:57:07;98564.19;;;-1.74;71.48
44138;BME280;29800;55.942;37.314;2023-02-12T02:59:39;98577.75;;;-1.82;71.51
44138;BME280;29800;55.942;37.314;2023-02-12T03:02:24;98569.28;;;-1.79;71.59
44138;BME280;29800;55.942;37.314;2023-02-12T03:04:56;98582.03;;;-1.88;71.57
44138;BME280;29800;55.942;37.314;2023-02-12T03:07:27;98592.94;;;-1.96;71.68
44138;BME280;29800;55.942;37.314;2023-02-12T03:09:57;98597.81;;;-2.06;71.63
44138;BME280;29800;55.942;37.314;2023-02-12T03:12:37;98607.50;;;-2.05;71.53
44138;BME280;29800;55.942;37.314;2023-02-12T03:15:15;98614.50;;;-2.11;71.65
44138;BME280;29800;55.942;37.314;2023-02-12T03:17:47;98620.06;;;-2.12;71.39
44138;BME280;29800;55.942;37.314;2023-02-12T03:20:27;98622.69;;;-2.19;71.41
44138;BME280;29800;55.942;37.314;2023-02-12T03:23:09;98637.78;;;-2.18;71.72
44138;BME280;29800;55.942;37.314;2023-02-12T03:28:26;98644.78;;;-2.17;70.90
44138;BME280;29800;55.942;37.314;2023-02-12T03:31:19;98661.63;;;-2.23;70.27
44138;BME280;29800;55.942;37.314;2023-02-12T03:38:53;98669.66;;;-2.23;69.31
44138;BME280;29800;55.942;37.314;2023-02-12T03:41:33;98673.59;;;-2.26;69.29
44138;BME280;29800;55.942;37.314;2023-02-12T03:44:56;98683.53;;;-2.19;69.26
44138;BME280;29800;55.942;37.314;2023-02-12T03:50:16;98705.56;;;-2.24;68.51
44138;BME280;29800;55.942;37.314;2023-02-12T03:52:44;98703.25;;;-2.27;68.34
44138;BME280;29800;55.942;37.314;2023-02-12T03:55:11;98711.31;;;-2.27;68.94
44138;BME280;29800;55.942;37.314;2023-02-12T03:57:41;98723.88;;;-2.28;68.61
44138;BME280;29800;55.942;37.314;2023-02-12T04:00:15;98729.38;;;-2.36;68.24
44138;BME280;29800;55.942;37.314;2023-02-12T04:02:42;98731.53;;;-2.46;68.62
44138;BME280;29800;55.942;37.314;2023-02-12T04:05:22;98738.94;;;-2.27;68.36
44138;BME280;29800;55.942;37.314;2023-02-12T04:07:49;98747.53;;;-2.31;67.94
44138;BME280;29800;55.942;37.314;2023-02-12T04:10:17;98746.41;;;-2.22;68.05
44138;BME280;29800;55.942;37.314;2023-02-12T04:16:06;98768.69;;;-2.00;66.52
44138;BME280;29800;55.942;37.314;2023-02-12T04:18:42;98768.59;;;-2.07;66.58
44138;BME280;29800;55.942;37.314;2023-02-12T04:24:36;98783.81;;;-2.14;66.94
44138;BME280;29800;55.942;37.314;2023-02-12T04:29:51;98794.03;;;-2.24;67.16
44138;BME280;29800;55.942;37.314;2023-02-12T04:32:32;98782.38;;;-2.16;66.52
44138;BME280;29800;55.942;37.314;2023-02-12T04:38:08;98814.06;;;-2.20;66.81
44138;BME280;29800;55.942;37.314;2023-02-12T04:40:38;98813.75;;;-2.32;66.26
44138;BME280;29800;55.942;37.314;2023-02-12T04:43:05;98825.09;;;-2.30;66.81
44138;BME280;29800;55.942;37.314;2023-02-12T04:45:33;98832.38;;;-2.24;66.47
44138;BME280;29800;55.942;37.314;2023-02-12T04:48:01;98824.91;;;-2.28;66.91
44138;BME280;29800;55.942;37.314;2023-02-12T04:50:38;98834.00;;;-2.29;67.01
44138;BME280;29800;55.942;37.314;2023-02-12T04:53:05;98831.50;;;-2.31;66.27
44138;BME280;29800;55.942;37.314;2023-02-12T04:55:32;98846.84;;;-2.40;66.45
44138;BME280;29800;55.942;37.314;2023-02-12T04:57:58;98857.97;;;-2.43;66.19
44138;BME280;29800;55.942;37.314;2023-02-12T05:00:24;98861.38;;;-2.49;66.38
44138;BME280;29800;55.942;37.314;2023-02-12T05:02:51;98866.28;;;-2.52;66.24
44138;BME280;29800;55.942;37.314;2023-02-12T05:05:17;98864.16;;;-2.57;66.74
44138;BME280;29800;55.942;37.314;2023-02-12T05:07:46;98874.53;;;-2.54;66.35
44138;BME280;29800;55.942;37.314;2023-02-12T05:10:13;98880.53;;;-2.67;66.54
44138;BME280;29800;55.942;37.314;2023-02-12T05:12:39;98889.56;;;-2.68;65.88
44138;BME280;29800;55.942;37.314;2023-02-12T05:15:05;98903.88;;;-2.75;66.33
44138;BME280;29800;55.942;37.314;2023-02-12T05:17:32;98911.47;;;-2.79;66.12
44138;BME280;29800;55.942;37.314;2023-02-12T05:19:58;98911.66;;;-2.81;65.94
44138;BME280;29800;55.942;37.314;2023-02-12T05:22:24;98920.91;;;-2.83;65.94
44138;BME280;29800;55.942;37.314;2023-02-12T05:24:50;98916.63;;;-2.78;66.30
44138;BME280;29800;55.942;37.314;2023-02-12T05:27:16;98936.59;;;-2.80;65.76
44138;BME280;29800;55.942;37.314;2023-02-12T05:29:42;98939.66;;;-2.83;65.10
44138;BME280;29800;55.942;37.314;2023-02-12T05:32:08;98940.00;;;-2.86;65.13
44138;BME280;29800;55.942;37.314;2023-02-12T05:34:35;98950.25;;;-2.90;65.28
44138;BME280;29800;55.942;37.314;2023-02-12T05:37:01;98945.09;;;-2.91;65.20
44138;BME280;29800;55.942;37.314;2023-02-12T05:39:28;98953.94;;;-2.91;65.09
44138;BME280;29800;55.942;37.314;2023-02-12T05:41:54;98957.16;;;-2.96;65.35
44138;BME280;29800;55.942;37.314;2023-02-12T05:44:20;98964.75;;;-2.84;64.76
44138;BME280;29800;55.942;37.314;2023-02-12T05:46:46;98971.63;;;-2.82;64.92
44138;BME280;29800;55.942;37.314;2023-02-12T05:49:12;98986.25;;;-2.92;64.43
44138;BME280;29800;55.942;37.314;2023-02-12T05:51:38;98983.47;;;-2.99;64.89
44138;BME280;29800;55.942;37.314;2023-02-12T05:54:06;98985.16;;;-2.98;65.03
44138;BME280;29800;55.942;37.314;2023-02-12T05:56:41;98985.81;;;-2.96;65.29
44138;BME280;29800;55.942;37.314;2023-02-12T05:59:13;98998.91;;;-3.01;65.05
44138;BME280;29800;55.942;37.314;2023-02-12T06:01:41;99001.66;;;-3.09;64.74
44138;BME280;29800;55.942;37.314;2023-02-12T06:04:13;99002.91;;;-3.20;64.82
44138;BME280;29800;55.942;37.314;2023-02-12T06:06:40;99001.44;;;-3.23;65.74
44138;BME280;29800;55.942;37.314;2023-02-12T06:09:10;99004.09;;;-3.23;65.37
44138;BME280;29800;55.942;37.314;2023-02-12T06:11:36;99015.00;;;-3.24;65.21
44138;BME280;29800;55.942;37.314;2023-02-12T06:14:04;99028.25;;;-3.31;65.10
44138;BME280;29800;55.942;37.314;2023-02-12T06:16:31;99038.97;;;-3.31;65.23
44138;BME280;29800;55.942;37.314;2023-02-12T06:18:57;99038.97;;;-3.31;65.21
44138;BME280;29800;55.942;37.314;2023-02-12T06:21:26;99050.13;;;-3.27;65.31
44138;BME280;29800;55.942;37.314;2023-02-12T06:23:52;99051.94;;;-3.20;64.84
44138;BME280;29800;55.942;37.314;2023-02-12T06:26:19;99071.16;;;-3.16;64.70
44138;BME280;29800;55.942;37.314;2023-02-12T06:28:46;99081.34;;;-3.11;65.02
44138;BME280;29800;55.942;37.314;2023-02-12T06:31:21;99079.47;;;-3.11;64.88
44138;BME280;29800;55.942;37.314;2023-02-12T06:33:48;99082.31;;;-3.12;64.97
44138;BME280;29800;55.942;37.314;2023-02-12T06:36:15;99092.34;;;-3.06;64.42
44138;BME280;29800;55.942;37.314;2023-02-12T06:38:41;99100.19;;;-3.05;64.78
44138;BME280;29800;55.942;37.314;2023-02-12T06:41:07;99108.53;;;-3.00;64.69
44138;BME280;29800;55.942;37.314;2023-02-12T06:43:34;99106.19;;;-3.03;63.92
44138;BME280;29800;55.942;37.314;2023-02-12T06:46:00;99105.38;;;-3.03;64.29
44138;BME280;29800;55.942;37.314;2023-02-12T06:48:27;99106.66;;;-2.99;63.60
44138;BME280;29800;55.942;37.314;2023-02-12T06:50:54;99120.72;;;-2.97;63.57
44138;BME280;29800;55.942;37.314;2023-02-12T06:53:20;99119.41;;;-3.01;63.27
44138;BME280;29800;55.942;37.314;2023-02-12T06:55:46;99118.75;;;-3.03;63.13
44138;BME280;29800;55.942;37.314;2023-02-12T06:58:12;99137.84;;;-3.06;62.98
44138;BME280;29800;55.942;37.314;2023-02-12T07:00:38;99138.22;;;-3.09;63.12
44138;BME280;29800;55.942;37.314;2023-02-12T07:03:04;99140.47;;;-2.98;63.13
44138;BME280;29800;55.942;37.314;2023-02-12T07:05:30;99152.13;;;-2.91;62.70
44138;BME280;29800;55.942;37.314;2023-02-12T07:07:57;99132.09;;;-2.95;62.78
44138;BME280;29800;55.942;37.314;2023-02-12T07:10:23;99146.44;;;-2.88;62.86
44138;BME280;29800;55.942;37.314;2023-02-12T07:12:49;99146.09;;;-2.85;61.80
44138;BME280;29800;55.942;37.314;2023-02-12T07:15:15;99163.22;;;-2.94;62.31
44138;BME280;29800;55.942;37.314;2023-02-12T07:17:41;99157.03;;;-2.94;61.92
44138;BME280;29800;55.942;37.314;2023-02-12T07:20:08;99171.41;;;-2.96;62.02
44138;BME280;29800;55.942;37.314;2023-02-12T07:22:37;99178.56;;;-2.88;62.07
44138;BME280;29800;55.942;37.314;2023-02-12T07:25:04;99180.19;;;-2.79;61.35
44138;BME280;29800;55.942;37.314;2023-02-12T07:27:30;99172.75;;;-2.68;60.99
44138;BME280;29800;55.942;37.314;2023-02-12T07:29:56;99174.66;;;-2.54;60.87
44138;BME280;29800;55.942;37.314;2023-02-12T07:32:22;99189.66;;;-2.45;60.46
44138;BME280;29800;55.942;37.314;2023-02-12T07:34:48;99191.97;;;-2.42;59.95
44138;BME280;29800;55.942;37.314;2023-02-12T07:37:14;99194.72;;;-2.50;59.40
44138;BME280;29800;55.942;37.314;2023-02-12T07:39:41;99203.97;;;-2.52;59.63
44138;BME280;29800;55.942;37.314;2023-02-12T07:42:07;99202.53;;;-2.63;59.29
44138;BME280;29800;55.942;37.314;2023-02-12T07:44:33;99217.78;;;-2.64;59.93
44138;BME280;29800;55.942;37.314;2023-02-12T07:46:59;99213.00;;;-2.53;59.56
44138;BME280;29800;55.942;37.314;2023-02-12T07:49:25;99219.88;;;-2.51;59.02
44138;BME280;29800;55.942;37.314;2023-02-12T07:51:51;99214.50;;;-2.51;58.94
44138;BME280;29800;55.942;37.314;2023-02-12T07:54:20;99226.28;;;-2.60;58.56
44138;BME280;29800;55.942;37.314;2023-02-12T07:56:46;99224.44;;;-2.60;58.69
44138;BME280;29800;55.942;37.314;2023-02-12T07:59:15;99225.25;;;-2.51;58.63
44138;BME280;29800;55.942;37.314;2023-02-12T08:01:45;99226.81;;;-2.42;57.95
44138;BME280;29800;55.942;37.314;2023-02-12T08:04:13;99242.56;;;-2.38;57.59
44138;BME280;29800;55.942;37.314;2023-02-12T08:06:41;99242.78;;;-2.25;57.08
44138;BME280;29800;55.942;37.314;2023-02-12T08:09:11;99247.44;;;-2.19;57.73
44138;BME280;29800;55.942;37.314;2023-02-12T08:11:38;99247.38;;;-2.11;56.65
44138;BME280;29800;55.942;37.314;2023-02-12T08:14:04;99252.84;;;-2.04;57.31
44138;BME280;29800;55.942;37.314;2023-02-12T08:16:35;99251.09;;;-1.97;56.53
44138;BME280;29800;55.942;37.314;2023-02-12T08:19:01;99261.44;;;-2.09;56.56
44138;BME280;29800;55.942;37.314;2023-02-12T08:21:27;99266.72;;;-2.00;56.46
44138;BME280;29800;55.942;37.314;2023-02-12T08:23:55;99279.19;;;-1.85;56.31
44138;BME280;29800;55.942;37.314;2023-02-12T08:26:24;99290.97;;;-1.71;55.75
44138;BME280;29800;55.942;37.314;2023-02-12T08:28:56;99282.34;;;-1.81;55.48
44138;BME280;29800;55.942;37.314;2023-02-12T08:31:25;99296.09;;;-1.84;55.39
44138;BME280;29800;55.942;37.314;2023-02-12T08:33:53;99302.78;;;-1.80;56.03
44138;BME280;29800;55.942;37.314;2023-02-12T08:36:21;99302.91;;;-1.73;55.40
44138;BME280;29800;55.942;37.314;2023-02-12T08:38:48;99290.53;;;-1.44;54.97
44138;BME280;29800;55.942;37.314;2023-02-12T08:41:22;99292.41;;;-1.15;54.50
44138;BME280;29800;55.942;37.314;2023-02-12T08:43:50;99301.16;;;-1.13;54.39
44138;BME280;29800;55.942;37.314;2023-02-12T08:46:20;99309.66;;;-1.24;54.38
44138;BME280;29800;55.942;37.314;2023-02-12T08:48:47;99303.88;;;-1.36;54.61
44138;BME280;29800;55.942;37.314;2023-02-12T08:51:16;99302.16;;;-1.14;55.06
44138;BME280;29800;55.942;37.314;2023-02-12T08:53:44;99309.84;;;-1.11;54.70
44138;BME280;29800;55.942;37.314;2023-02-12T08:56:11;99315.41;;;-0.98;54.70
44138;BME280;29800;55.942;37.314;2023-02-12T08:58:38;99322.63;;;-0.98;54.35
44138;BME280;29800;55.942;37.314;2023-02-12T09:01:10;99320.03;;;-0.77;54.75
44138;BME280;29800;55.942;37.314;2023-02-12T09:03:37;99310.63;;;-0.66;53.91
44138;BME280;29800;55.942;37.314;2023-02-12T09:06:04;99309.44;;;-0.63;53.87
44138;BME280;29800;55.942;37.314;2023-02-12T09:08:32;99330.78;;;-0.77;53.22
44138;BME280;29800;55.942;37.314;2023-02-12T09:11:02;99331.69;;;-0.84;54.14
44138;BME280;29800;55.942;37.314;2023-02-12T09:13:28;99336.97;;;-0.76;53.12
44138;BME280;29800;55.942;37.314;2023-02-12T09:15:54;99332.44;;;-0.76;52.85
44138;BME280;29800;55.942;37.314;2023-02-12T09:18:21;99337.72;;;-0.82;52.72
44138;BME280;29800;55.942;37.314;2023-02-12T09:20:46;99343.47;;;-0.70;52.89
44138;BME280;29800;55.942;37.314;2023-02-12T09:23:13;99343.38;;;-0.77;52.61
44138;BME280;29800;55.942;37.314;2023-02-12T09:25:43;99338.09;;;-0.56;52.29
44138;BME280;29800;55.942;37.314;2023-02-12T09:28:11;99346.94;;;-0.40;51.93
44138;BME280;29800;55.942;37.314;2023-02-12T09:30:38;99343.59;;;-0.27;51.64
44138;BME280;29800;55.942;37.314;2023-02-12T09:33:06;99343.28;;;-0.17;51.34
44138;BME280;29800;55.942;37.314;2023-02-12T09:35:37;99342.03;;;0.22;50.47
44138;BME280;29800;55.942;37.314;2023-02-12T09:38:04;99345.81;;;0.77;50.03
44138;BME280;29800;55.942;37.314;2023-02-12T09:43:52;99360.09;;;1.47;48.68
44138;BME280;29800;55.942;37.314;2023-02-12T09:46:41;99352.53;;;1.64;48.93
44138;BME280;29800;55.942;37.314;2023-02-12T09:51:59;99367.72;;;1.31;48.82
44138;BME280;29800;55.942;37.314;2023-02-12T09:54:36;99363.91;;;1.18;48.92
44138;BME280;29800;55.942;37.314;2023-02-12T09:57:06;99356.16;;;0.80;49.54
44138;BME280;29800;55.942;37.314;2023-02-12T09:59:43;99367.38;;;0.55;49.38
44138;BME280;29800;55.942;37.314;2023-02-12T10:02:14;99369.25;;;0.55;50.55
44138;BME280;29800;55.942;37.314;2023-02-12T10:04:42;99377.00;;;0.65;50.33
44138;BME280;29800;55.942;37.314;2023-02-12T10:12:25;99387.31;;;0.18;50.17
44138;BME280;29800;55.942;37.314;2023-02-12T10:15:13;99396.56;;;0.09;50.51
44138;BME280;29800;55.942;37.314;2023-02-12T10:17:58;99388.78;;;-0.01;51.27
44138;BME280;29800;55.942;37.314;2023-02-12T10:25:57;99398.00;;;-0.10;51.62
44138;BME280;29800;55.942;37.314;2023-02-12T10:28:27;99415.06;;;-0.03;51.55
44138;BME280;29800;55.942;37.314;2023-02-12T10:31:06;99408.41;;;0.14;50.74
44138;BME280;29800;55.942;37.314;2023-02-12T10:33:41;99414.75;;;0.07;50.72
44138;BME280;29800;55.942;37.314;2023-02-12T10:39:25;99414.53;;;0.23;51.22
44138;BME280;29800;55.942;37.314;2023-02-12T10:42:00;99422.66;;;-0.07;51.68
44138;BME280;29800;55.942;37.314;2023-02-12T10:44:27;99424.69;;;-0.09;51.69
44138;BME280;29800;55.942;37.314;2023-02-12T10:46:54;99427.09;;;0.01;51.63
44138;BME280;29800;55.942;37.314;2023-02-12T10:49:20;99426.78;;;0.11;51.12
44138;BME280;29800;55.942;37.314;2023-02-12T10:52:01;99436.69;;;0.25;51.33
44138;BME280;29800;55.942;37.314;2023-02-12T10:54:47;99429.81;;;0.23;51.37
44138;BME280;29800;55.942;37.314;2023-02-12T10:57:22;99437.06;;;-0.14;51.06
44138;BME280;29800;55.942;37.314;2023-02-12T10:59:51;99444.97;;;-0.28;51.70
44138;BME280;29800;55.942;37.314;2023-02-12T11:02:29;99447.84;;;-0.29;51.52
44138;BME280;29800;55.942;37.314;2023-02-12T11:04:58;99450.22;;;-0.34;52.08
44138;BME280;29800;55.942;37.314;2023-02-12T11:07:25;99460.25;;;-0.13;51.52
44138;BME280;29800;55.942;37.314;2023-02-12T11:09:54;99462.56;;;-0.10;50.96
44138;BME280;29800;55.942;37.314;2023-02-12T11:12:31;99469.88;;;-0.04;51.65
44138;BME280;29800;55.942;37.314;2023-02-12T11:15:16;99480.66;;;-0.04;51.47
44138;BME280;29800;55.942;37.314;2023-02-12T11:17:53;99476.47;;;-0.22;51.10
44138;BME280;29800;55.942;37.314;2023-02-12T11:20:24;99481.88;;;-0.22;51.15
44138;BME280;29800;55.942;37.314;2023-02-12T11:23:02;99481.75;;;-0.13;52.13
44138;BME280;29800;55.942;37.314;2023-02-12T11:25:34;99482.22;;;0.05;51.73
44138;BME280;29800;55.942;37.314;2023-02-12T11:30:31;99495.19;;;0.02;50.62
44138;BME280;29800;55.942;37.314;2023-02-12T11:33:21;99512.19;;;0.02;51.15
44138;BME280;29800;55.942;37.314;2023-02-12T11:35:53;99506.84;;;-0.13;50.93
44138;BME280;29800;55.942;37.314;2023-02-12T11:38:35;99520.72;;;0.06;50.86
44138;BME280;29800;55.942;37.314;2023-02-12T11:41:06;99517.81;;;0.37;50.83
44138;BME280;29800;55.942;37.314;2023-02-12T11:43:41;99521.91;;;0.69;50.51
44138;BME280;29800;55.942;37.314;2023-02-12T11:46:07;99531.19;;;0.88;49.01
44138;BME280;29800;55.942;37.314;2023-02-12T11:48:38;99542.81;;;0.89;48.92
44138;BME280;29800;55.942;37.314;2023-02-12T11:51:07;99555.28;;;0.53;49.42
44138;BME280;29800;55.942;37.314;2023-02-12T11:53:42;99559.19;;;0.36;49.96
44138;BME280;29800;55.942;37.314;2023-02-12T11:56:13;99561.00;;;-0.01;50.14
44138;BME280;29800;55.942;37.314;2023-02-12T11:58:40;99565.63;;;-0.25;50.61
44138;BME280;29800;55.942;37.314;2023-02-12T12:03:52;99573.22;;;-0.28;50.64
44138;BME280;29800;55.942;37.314;2023-02-12T12:14:41;99582.72;;;-0.03;50.08
44138;BME280;29800;55.942;37.314;2023-02-12T12:17:49;99589.22;;;0.03;49.81
44138;BME280;29800;55.942;37.314;2023-02-12T12:20:51;99596.47;;;0.03;50.09
44138;BME280;29800;55.942;37.314;2023-02-12T12:24:08;99596.91;;;-0.24;50.40
44138;BME280;29800;55.942;37.314;2023-02-12T12:26:38;99622.78;;;-0.61;50.36
44138;BME280;29800;55.942;37.314;2023-02-12T12:29:47;99613.34;;;-0.57;50.79
44138;BME280;29800;55.942;37.314;2023-02-12T12:32:18;99622.66;;;-0.90;50.99
44138;BME280;29800;55.942;37.314;2023-02-12T12:34:46;99618.38;;;-1.00;51.23
44138;BME280;29800;55.942;37.314;2023-02-12T12:37:31;99619.09;;;-0.83;51.14
44138;BME280;29800;55.942;37.314;2023-02-12T12:43:01;99632.09;;;-0.71;51.02
44138;BME280;29800;55.942;37.314;2023-02-12T12:53:50;99645.19;;;-0.91;51.64
44138;BME280;29800;55.942;37.314;2023-02-12T12:56:29;99647.47;;;-0.80;51.35
44138;BME280;29800;55.942;37.314;2023-02-12T12:59:26;99648.41;;;-0.73;51.38
44138;BME280;29800;55.942;37.314;2023-02-12T13:02:20;99651.97;;;-0.81;51.10
44138;BME280;29800;55.942;37.314;2023-02-12T13:10:49;99659.16;;;-0.50;50.97
44138;BME280;29800;55.942;37.314;2023-02-12T13:13:41;99664.34;;;-0.48;50.96
44138;BME280;29800;55.942;37.314;2023-02-12T13:21:48;99668.66;;;-0.39;50.85
44138;BME280;29800;55.942;37.314;2023-02-12T13:24:28;99661.03;;;-0.50;50.72
44138;BME280;29800;55.942;37.314;2023-02-12T13:27:05;99669.25;;;-0.52;50.71
44138;BME280;29800;55.942;37.314;2023-02-12T13:29:38;99665.06;;;-0.54;51.16
44138;BME280;29800;55.942;37.314;2023-02-12T13:32:13;99676.06;;;-0.64;51.01
44138;BME280;29800;55.942;37.314;2023-02-12T13:34:41;99682.53;;;-0.73;51.01
44138;BME280;29800;55.942;37.314;2023-02-12T13:37:14;99684.66;;;-0.69;51.32
44138;BME280;29800;55.942;37.314;2023-02-12T13:39:44;99688.03;;;-0.67;51.08
44138;BME280;29800;55.942;37.314;2023-02-12T13:47:30;99685.00;;;-0.64;51.50
44138;BME280;29800;55.942;37.314;2023-02-12T13:50:02;99687.00;;;-0.66;51.11
44138;BME280;29800;55.942;37.314;2023-02-12T13:52:37;99690.72;;;-0.67;50.93
44138;BME280;29800;55.942;37.314;2023-02-12T13:55:12;99683.00;;;-0.70;51.21
44138;BME280;29800;55.942;37.314;2023-02-12T13:57:40;99689.63;;;-0.81;51.26
44138;BME280;29800;55.942;37.314;2023-02-12T14:03:12;99693.22;;;-0.88;51.62
44138;BME280;29800;55.942;37.314;2023-02-12T14:05:40;99693.25;;;-0.97;51.78
44138;BME280;29800;55.942;37.314;2023-02-12T14:08:35;99697.59;;;-0.96;52.08
44138;BME280;29800;55.942;37.314;2023-02-12T14:11:12;99693.16;;;-1.20;52.29
44138;BME280;29800;55.942;37.314;2023-02-12T14:13:57;99698.41;;;-1.26;52.65
44138;BME280;29800;55.942;37.314;2023-02-12T14:22:00;99716.25;;;-1.34;52.78
44138;BME280;29800;55.942;37.314;2023-02-12T14:30:22;99720.63;;;-1.33;53.20
44138;BME280;29800;55.942;37.314;2023-02-12T14:35:41;99736.59;;;-1.39;53.02
44138;BME280;29800;55.942;37.314;2023-02-12T14:40:36;99759.59;;;-1.61;53.41
44138;BME280;29800;55.942;37.314;2023-02-12T14:43:27;99761.28;;;-1.52;53.24
44138;BME280;29800;55.942;37.314;2023-02-12T14:45:56;99765.47;;;-1.58;52.90
44138;BME280;29800;55.942;37.314;2023-02-12T14:48:56;99768.63;;;-1.46;53.19
44138;BME280;29800;55.942;37.314;2023-02-12T14:51:56;99774.88;;;-1.54;53.22
44138;BME280;29800;55.942;37.314;2023-02-12T14:54:28;99782.47;;;-1.74;53.09
44138;BME280;29800;55.942;37.314;2023-02-12T14:57:00;99785.31;;;-1.75;53.41
44138;BME280;29800;55.942;37.314;2023-02-12T14:59:35;99786.47;;;-1.78;53.85
44138;BME280;29800;55.942;37.314;2023-02-12T15:02:05;99798.56;;;-1.82;53.88
44138;BME280;29800;55.942;37.314;2023-02-12T15:04:37;99798.56;;;-1.90;54.08
44138;BME280;29800;55.942;37.314;2023-02-12T15:07:11;99799.41;;;-1.90;54.31